sensor_id;sensor_type;location;lat;lon;timestamp;P1;durP1;ratioP1;P2;durP2;ratioP2
61903;SDS011;47857;52.270;6.804;2023-06-24T00:00:02;11.10;;;7.72;;
61903;SDS011;47857;52.270;6.804;2023-06-24T00:02:32;10.82;;;7.82;;
61903;SDS011;47857;52.270;6.804;2023-06-24T00:05:01;10.35;;;8.18;;
61903;SDS011;47857;52.270;6.804;2023-06-24T00:07:29;9.57;;;7.90;;
61903;SDS011;47857;52.270;6.804;2023-06-24T00:09:54;10.15;;;8.30;;
61903;SDS011;47857;52.270;6.804;2023-06-24T00:12:20;12.35;;;8.43;;
61903;SDS011;47857;52.270;6.804;2023-06-24T00:14:46;9.55;;;8.55;;
61903;SDS011;47857;52.270;6.804;2023-06-24T00:17:12;10.90;;;8.15;;
61903;SDS011;47857;52.270;6.804;2023-06-24T00:19:38;11.32;;;8.65;;
61903;SDS011;47857;52.270;6.804;2023-06-24T00:22:04;13.57;;;8.50;;
61903;SDS011;47857;52.270;6.804;2023-06-24T00:24:31;12.98;;;8.48;;
61903;SDS011;47857;52.270;6.804;2023-06-24T00:26:56;11.02;;;8.18;;
61903;SDS011;47857;52.270;6.804;2023-06-24T00:29:22;10.25;;;8.75;;
61903;SDS011;47857;52.270;6.804;2023-06-24T00:31:47;9.30;;;8.30;;
61903;SDS011;47857;52.270;6.804;2023-06-24T00:34:13;10.18;;;8.93;;
61903;SDS011;47857;52.270;6.804;2023-06-24T00:36:39;11.60;;;8.45;;
61903;SDS011;47857;52.270;6.804;2023-06-24T00:39:05;9.82;;;8.38;;
61903;SDS011;47857;52.270;6.804;2023-06-24T00:41:31;10.07;;;8.43;;
61903;SDS011;47857;52.270;6.804;2023-06-24T00:43:58;10.35;;;8.70;;
61903;SDS011;47857;52.270;6.804;2023-06-24T00:46:24;9.98;;;8.93;;
61903;SDS011;47857;52.270;6.804;2023-06-24T00:48:57;11.52;;;8.80;;
61903;SDS011;47857;52.270;6.804;2023-06-24T00:51:24;10.05;;;8.73;;
61903;SDS011;47857;52.270;6.804;2023-06-24T00:53:52;9.77;;;8.27;;
61903;SDS011;47857;52.270;6.804;2023-06-24T00:56:18;12.07;;;8.45;;
61903;SDS011;47857;52.270;6.804;2023-06-24T00:58:57;11.00;;;8.30;;
61903;SDS011;47857;52.270;6.804;2023-06-24T01:01:23;11.15;;;8.65;;
61903;SDS011;47857;52.270;6.804;2023-06-24T01:03:50;9.70;;;8.23;;
61903;SDS011;47857;52.270;6.804;2023-06-24T01:06:15;13.07;;;7.97;;
61903;SDS011;47857;52.270;6.804;2023-06-24T01:08:41;11.00;;;8.75;;
61903;SDS011;47857;52.270;6.804;2023-06-24T01:11:07;11.15;;;8.82;;
61903;SDS011;47857;52.270;6.804;2023-06-24T01:13:32;12.13;;;8.55;;
61903;SDS011;47857;52.270;6.804;2023-06-24T01:15:59;11.57;;;8.40;;
61903;SDS011;47857;52.270;6.804;2023-06-24T01:18:36;10.60;;;8.50;;
61903;SDS011;47857;52.270;6.804;2023-06-24T01:21:06;12.50;;;8.15;;
61903;SDS011;47857;52.270;6.804;2023-06-24T01:35:04;10.98;;;8.38;;
61903;SDS011;47857;52.270;6.804;2023-06-24T01:37:35;10.65;;;8.68;;
61903;SDS011;47857;52.270;6.804;2023-06-24T01:42:42;13.73;;;9.30;;
61903;SDS011;47857;52.270;6.804;2023-06-24T01:45:10;11.50;;;9.07;;
61903;SDS011;47857;52.270;6.804;2023-06-24T01:47:39;12.05;;;8.93;;
61903;SDS011;47857;52.270;6.804;2023-06-24T01:50:06;11.18;;;9.00;;
61903;SDS011;47857;52.270;6.804;2023-06-24T01:52:35;10.80;;;8.57;;
61903;SDS011;47857;52.270;6.804;2023-06-24T01:55:02;12.52;;;8.93;;
61903;SDS011;47857;52.270;6.804;2023-06-24T01:57:29;10.07;;;8.60;;
61903;SDS011;47857;52.270;6.804;2023-06-24T01:59:56;11.50;;;8.75;;
61903;SDS011;47857;52.270;6.804;2023-06-24T02:02:23;10.40;;;8.55;;
61903;SDS011;47857;52.270;6.804;2023-06-24T02:04:50;9.98;;;8.68;;
61903;SDS011;47857;52.270;6.804;2023-06-24T02:07:17;13.85;;;9.50;;
61903;SDS011;47857;52.270;6.804;2023-06-24T02:09:44;11.55;;;9.15;;
61903;SDS011;47857;52.270;6.804;2023-06-24T02:12:10;12.30;;;9.60;;
61903;SDS011;47857;52.270;6.804;2023-06-24T02:14:35;11.93;;;9.30;;
61903;SDS011;47857;52.270;6.804;2023-06-24T02:17:04;10.02;;;8.95;;
61903;SDS011;47857;52.270;6.804;2023-06-24T02:19:33;11.90;;;8.93;;
61903;SDS011;47857;52.270;6.804;2023-06-24T02:21:59;10.85;;;9.40;;
61903;SDS011;47857;52.270;6.804;2023-06-24T02:24:25;11.23;;;8.70;;
61903;SDS011;47857;52.270;6.804;2023-06-24T02:26:53;10.55;;;9.43;;
61903;SDS011;47857;52.270;6.804;2023-06-24T02:29:19;11.27;;;9.00;;
61903;SDS011;47857;52.270;6.804;2023-06-24T02:31:45;10.48;;;9.32;;
61903;SDS011;47857;52.270;6.804;2023-06-24T02:34:11;10.82;;;9.32;;
61903;SDS011;47857;52.270;6.804;2023-06-24T02:36:37;10.85;;;9.13;;
61903;SDS011;47857;52.270;6.804;2023-06-24T02:39:02;10.57;;;9.43;;
61903;SDS011;47857;52.270;6.804;2023-06-24T02:41:29;11.65;;;9.52;;
61903;SDS011;47857;52.270;6.804;2023-06-24T02:43:55;13.20;;;9.90;;
61903;SDS011;47857;52.270;6.804;2023-06-24T02:46:21;11.00;;;9.70;;
61903;SDS011;47857;52.270;6.804;2023-06-24T02:48:47;10.43;;;9.07;;
61903;SDS011;47857;52.270;6.804;2023-06-24T02:51:13;10.48;;;8.98;;
61903;SDS011;47857;52.270;6.804;2023-06-24T02:53:39;12.55;;;10.32;;
61903;SDS011;47857;52.270;6.804;2023-06-24T02:56:11;12.02;;;10.38;;
61903;SDS011;47857;52.270;6.804;2023-06-24T02:58:38;11.80;;;10.57;;
61903;SDS011;47857;52.270;6.804;2023-06-24T03:01:09;12.73;;;10.13;;
61903;SDS011;47857;52.270;6.804;2023-06-24T03:03:46;11.75;;;9.77;;
61903;SDS011;47857;52.270;6.804;2023-06-24T03:06:14;11.30;;;9.98;;
61903;SDS011;47857;52.270;6.804;2023-06-24T03:08:43;11.15;;;9.98;;
61903;SDS011;47857;52.270;6.804;2023-06-24T03:11:12;12.38;;;10.30;;
61903;SDS011;47857;52.270;6.804;2023-06-24T03:13:39;11.70;;;10.40;;
61903;SDS011;47857;52.270;6.804;2023-06-24T03:16:12;11.77;;;9.80;;
61903;SDS011;47857;52.270;6.804;2023-06-24T03:18:44;12.30;;;9.50;;
61903;SDS011;47857;52.270;6.804;2023-06-24T03:21:10;10.70;;;9.60;;
61903;SDS011;47857;52.270;6.804;2023-06-24T03:23:37;11.27;;;10.05;;
61903;SDS011;47857;52.270;6.804;2023-06-24T03:26:06;11.82;;;9.90;;
61903;SDS011;47857;52.270;6.804;2023-06-24T03:28:34;12.02;;;10.40;;
61903;SDS011;47857;52.270;6.804;2023-06-24T03:31:08;10.68;;;9.60;;
61903;SDS011;47857;52.270;6.804;2023-06-24T03:33:33;13.30;;;10.07;;
61903;SDS011;47857;52.270;6.804;2023-06-24T03:35:59;10.57;;;9.43;;
61903;SDS011;47857;52.270;6.804;2023-06-24T03:38:29;11.95;;;10.32;;
61903;SDS011;47857;52.270;6.804;2023-06-24T03:40:56;11.55;;;9.75;;
61903;SDS011;47857;52.270;6.804;2023-06-24T03:43:21;11.52;;;9.85;;
61903;SDS011;47857;52.270;6.804;2023-06-24T03:45:48;11.60;;;9.63;;
61903;SDS011;47857;52.270;6.804;2023-06-24T03:48:13;12.38;;;10.30;;
61903;SDS011;47857;52.270;6.804;2023-06-24T03:50:39;14.13;;;9.85;;
61903;SDS011;47857;52.270;6.804;2023-06-24T03:53:05;11.63;;;9.82;;
61903;SDS011;47857;52.270;6.804;2023-06-24T03:55:32;13.00;;;10.00;;
61903;SDS011;47857;52.270;6.804;2023-06-24T03:57:57;11.30;;;9.82;;
61903;SDS011;47857;52.270;6.804;2023-06-24T04:00:23;10.45;;;9.35;;
61903;SDS011;47857;52.270;6.804;2023-06-24T04:02:50;10.48;;;9.38;;
61903;SDS011;47857;52.270;6.804;2023-06-24T04:05:17;11.13;;;9.80;;
61903;SDS011;47857;52.270;6.804;2023-06-24T04:07:43;12.27;;;8.95;;
61903;SDS011;47857;52.270;6.804;2023-06-24T04:10:12;11.05;;;9.50;;
61903;SDS011;47857;52.270;6.804;2023-06-24T04:12:38;10.93;;;8.73;;
61903;SDS011;47857;52.270;6.804;2023-06-24T04:15:04;10.55;;;9.00;;
61903;SDS011;47857;52.270;6.804;2023-06-24T04:17:32;10.45;;;9.23;;
61903;SDS011;47857;52.270;6.804;2023-06-24T04:19:58;13.25;;;9.43;;
61903;SDS011;47857;52.270;6.804;2023-06-24T04:22:24;11.00;;;9.48;;
61903;SDS011;47857;52.270;6.804;2023-06-24T04:24:54;14.88;;;9.98;;
61903;SDS011;47857;52.270;6.804;2023-06-24T04:27:20;11.82;;;9.35;;
61903;SDS011;47857;52.270;6.804;2023-06-24T04:29:46;11.93;;;10.05;;
61903;SDS011;47857;52.270;6.804;2023-06-24T04:32:11;15.27;;;10.18;;
61903;SDS011;47857;52.270;6.804;2023-06-24T04:34:37;11.90;;;10.02;;
61903;SDS011;47857;52.270;6.804;2023-06-24T04:37:03;13.52;;;9.68;;
61903;SDS011;47857;52.270;6.804;2023-06-24T04:39:28;11.20;;;10.07;;
61903;SDS011;47857;52.270;6.804;2023-06-24T04:41:54;13.40;;;11.85;;
61903;SDS011;47857;52.270;6.804;2023-06-24T04:44:19;12.30;;;10.55;;
61903;SDS011;47857;52.270;6.804;2023-06-24T04:46:45;12.43;;;11.05;;
61903;SDS011;47857;52.270;6.804;2023-06-24T04:49:11;12.90;;;10.98;;
61903;SDS011;47857;52.270;6.804;2023-06-24T04:51:36;15.82;;;12.95;;
61903;SDS011;47857;52.270;6.804;2023-06-24T04:54:02;28.08;;;19.20;;
61903;SDS011;47857;52.270;6.804;2023-06-24T04:56:29;44.28;;;32.75;;
61903;SDS011;47857;52.270;6.804;2023-06-24T04:58:54;33.08;;;25.42;;
61903;SDS011;47857;52.270;6.804;2023-06-24T05:01:20;20.77;;;17.23;;
61903;SDS011;47857;52.270;6.804;2023-06-24T05:03:47;47.15;;;36.45;;
61903;SDS011;47857;52.270;6.804;2023-06-24T05:06:12;24.25;;;19.05;;
61903;SDS011;47857;52.270;6.804;2023-06-24T05:08:38;14.93;;;11.70;;
61903;SDS011;47857;52.270;6.804;2023-06-24T05:11:03;13.65;;;11.40;;
61903;SDS011;47857;52.270;6.804;2023-06-24T05:13:29;13.93;;;11.05;;
61903;SDS011;47857;52.270;6.804;2023-06-24T05:15:54;12.52;;;10.65;;
61903;SDS011;47857;52.270;6.804;2023-06-24T05:18:20;13.65;;;10.75;;
61903;SDS011;47857;52.270;6.804;2023-06-24T05:20:45;12.60;;;10.68;;
61903;SDS011;47857;52.270;6.804;2023-06-24T05:23:11;14.68;;;11.00;;
61903;SDS011;47857;52.270;6.804;2023-06-24T05:25:37;13.55;;;10.73;;
61903;SDS011;47857;52.270;6.804;2023-06-24T05:28:02;14.65;;;10.55;;
61903;SDS011;47857;52.270;6.804;2023-06-24T05:30:28;14.35;;;9.75;;
61903;SDS011;47857;52.270;6.804;2023-06-24T05:32:53;14.02;;;10.43;;
61903;SDS011;47857;52.270;6.804;2023-06-24T05:35:19;14.75;;;10.48;;
61903;SDS011;47857;52.270;6.804;2023-06-24T05:37:45;15.27;;;11.50;;
61903;SDS011;47857;52.270;6.804;2023-06-24T05:40:10;13.95;;;11.25;;
61903;SDS011;47857;52.270;6.804;2023-06-24T05:42:38;15.98;;;11.40;;
61903;SDS011;47857;52.270;6.804;2023-06-24T05:45:03;14.15;;;11.02;;
61903;SDS011;47857;52.270;6.804;2023-06-24T05:47:31;17.48;;;11.35;;
61903;SDS011;47857;52.270;6.804;2023-06-24T05:49:57;19.98;;;12.82;;
61903;SDS011;47857;52.270;6.804;2023-06-24T05:52:23;15.13;;;10.57;;
61903;SDS011;47857;52.270;6.804;2023-06-24T05:54:49;15.25;;;11.82;;
61903;SDS011;47857;52.270;6.804;2023-06-24T05:57:14;18.38;;;12.93;;
61903;SDS011;47857;52.270;6.804;2023-06-24T05:59:40;13.07;;;11.43;;
61903;SDS011;47857;52.270;6.804;2023-06-24T06:02:06;13.63;;;11.65;;
61903;SDS011;47857;52.270;6.804;2023-06-24T06:04:31;13.68;;;11.50;;
61903;SDS011;47857;52.270;6.804;2023-06-24T06:06:57;17.73;;;11.77;;
61903;SDS011;47857;52.270;6.804;2023-06-24T06:09:23;14.85;;;11.13;;
61903;SDS011;47857;52.270;6.804;2023-06-24T06:11:48;11.20;;;8.77;;
61903;SDS011;47857;52.270;6.804;2023-06-24T06:14:14;12.02;;;10.50;;
61903;SDS011;47857;52.270;6.804;2023-06-24T06:16:39;13.77;;;9.60;;
61903;SDS011;47857;52.270;6.804;2023-06-24T06:19:05;13.98;;;11.25;;
61903;SDS011;47857;52.270;6.804;2023-06-24T06:21:31;13.65;;;10.77;;
61903;SDS011;47857;52.270;6.804;2023-06-24T06:23:57;12.05;;;9.55;;
61903;SDS011;47857;52.270;6.804;2023-06-24T06:26:22;11.70;;;9.68;;
61903;SDS011;47857;52.270;6.804;2023-06-24T06:28:48;13.02;;;10.70;;
61903;SDS011;47857;52.270;6.804;2023-06-24T06:31:14;16.88;;;12.30;;
61903;SDS011;47857;52.270;6.804;2023-06-24T06:33:40;12.88;;;11.50;;
61903;SDS011;47857;52.270;6.804;2023-06-24T06:36:05;14.02;;;10.90;;
61903;SDS011;47857;52.270;6.804;2023-06-24T06:38:34;19.98;;;13.05;;
61903;SDS011;47857;52.270;6.804;2023-06-24T06:41:00;19.33;;;13.00;;
61903;SDS011;47857;52.270;6.804;2023-06-24T06:43:27;13.32;;;10.25;;
61903;SDS011;47857;52.270;6.804;2023-06-24T06:45:52;14.77;;;11.25;;
61903;SDS011;47857;52.270;6.804;2023-06-24T06:48:18;15.93;;;12.35;;
61903;SDS011;47857;52.270;6.804;2023-06-24T06:50:44;16.67;;;12.07;;
61903;SDS011;47857;52.270;6.804;2023-06-24T06:53:10;17.42;;;12.52;;
61903;SDS011;47857;52.270;6.804;2023-06-24T06:55:36;16.02;;;11.80;;
61903;SDS011;47857;52.270;6.804;2023-06-24T06:58:02;14.60;;;12.20;;
61903;SDS011;47857;52.270;6.804;2023-06-24T07:00:28;13.60;;;10.20;;
61903;SDS011;47857;52.270;6.804;2023-06-24T07:02:53;17.42;;;11.68;;
61903;SDS011;47857;52.270;6.804;2023-06-24T07:05:19;17.25;;;10.27;;
61903;SDS011;47857;52.270;6.804;2023-06-24T07:07:44;17.15;;;11.88;;
61903;SDS011;47857;52.270;6.804;2023-06-24T07:10:10;17.80;;;12.13;;
61903;SDS011;47857;52.270;6.804;2023-06-24T07:12:36;13.45;;;10.98;;
61903;SDS011;47857;52.270;6.804;2023-06-24T07:15:01;12.95;;;11.02;;
61903;SDS011;47857;52.270;6.804;2023-06-24T07:17:27;20.85;;;12.00;;
61903;SDS011;47857;52.270;6.804;2023-06-24T07:19:53;19.60;;;10.80;;
61903;SDS011;47857;52.270;6.804;2023-06-24T07:22:19;15.63;;;10.25;;
61903;SDS011;47857;52.270;6.804;2023-06-24T07:24:44;16.55;;;11.80;;
61903;SDS011;47857;52.270;6.804;2023-06-24T07:27:10;19.02;;;11.95;;
61903;SDS011;47857;52.270;6.804;2023-06-24T07:29:35;20.35;;;10.48;;
61903;SDS011;47857;52.270;6.804;2023-06-24T07:32:01;16.08;;;10.90;;
61903;SDS011;47857;52.270;6.804;2023-06-24T07:34:28;18.60;;;12.93;;
61903;SDS011;47857;52.270;6.804;2023-06-24T07:36:54;19.40;;;11.82;;
61903;SDS011;47857;52.270;6.804;2023-06-24T07:39:20;18.90;;;13.05;;
61903;SDS011;47857;52.270;6.804;2023-06-24T07:41:45;14.05;;;12.60;;
61903;SDS011;47857;52.270;6.804;2023-06-24T07:44:11;18.48;;;12.65;;
61903;SDS011;47857;52.270;6.804;2023-06-24T07:46:37;19.25;;;12.75;;
61903;SDS011;47857;52.270;6.804;2023-06-24T07:49:02;15.85;;;13.00;;
61903;SDS011;47857;52.270;6.804;2023-06-24T07:51:28;17.95;;;12.85;;
61903;SDS011;47857;52.270;6.804;2023-06-24T07:53:53;17.63;;;12.82;;
61903;SDS011;47857;52.270;6.804;2023-06-24T07:56:19;14.65;;;11.73;;
61903;SDS011;47857;52.270;6.804;2023-06-24T07:58:44;18.08;;;12.23;;
61903;SDS011;47857;52.270;6.804;2023-06-24T08:01:10;15.65;;;12.00;;
61903;SDS011;47857;52.270;6.804;2023-06-24T08:03:36;13.55;;;12.18;;
61903;SDS011;47857;52.270;6.804;2023-06-24T08:06:04;17.33;;;12.70;;
61903;SDS011;47857;52.270;6.804;2023-06-24T08:08:29;16.20;;;11.93;;
61903;SDS011;47857;52.270;6.804;2023-06-24T08:10:55;15.27;;;12.98;;
61903;SDS011;47857;52.270;6.804;2023-06-24T08:13:20;15.27;;;11.82;;
61903;SDS011;47857;52.270;6.804;2023-06-24T08:15:46;15.85;;;13.02;;
61903;SDS011;47857;52.270;6.804;2023-06-24T08:18:11;19.60;;;12.52;;
61903;SDS011;47857;52.270;6.804;2023-06-24T08:20:37;23.70;;;19.23;;
61903;SDS011;47857;52.270;6.804;2023-06-24T08:23:02;21.02;;;15.30;;
61903;SDS011;47857;52.270;6.804;2023-06-24T08:25:28;18.70;;;13.60;;
61903;SDS011;47857;52.270;6.804;2023-06-24T08:27:53;22.50;;;17.17;;
61903;SDS011;47857;52.270;6.804;2023-06-24T08:30:19;17.35;;;13.43;;
61903;SDS011;47857;52.270;6.804;2023-06-24T08:32:44;17.15;;;14.15;;
61903;SDS011;47857;52.270;6.804;2023-06-24T08:35:10;13.98;;;12.18;;
61903;SDS011;47857;52.270;6.804;2023-06-24T08:37:36;15.35;;;13.23;;
61903;SDS011;47857;52.270;6.804;2023-06-24T08:40:02;18.02;;;15.70;;
61903;SDS011;47857;52.270;6.804;2023-06-24T08:42:29;15.40;;;13.07;;
61903;SDS011;47857;52.270;6.804;2023-06-24T08:44:55;17.00;;;12.40;;
61903;SDS011;47857;52.270;6.804;2023-06-24T08:47:20;16.55;;;13.68;;
61903;SDS011;47857;52.270;6.804;2023-06-24T08:49:50;19.55;;;13.40;;
61903;SDS011;47857;52.270;6.804;2023-06-24T08:52:21;16.50;;;12.55;;
61903;SDS011;47857;52.270;6.804;2023-06-24T08:54:50;14.27;;;11.30;;
61903;SDS011;47857;52.270;6.804;2023-06-24T08:57:16;17.15;;;14.50;;
61903;SDS011;47857;52.270;6.804;2023-06-24T08:59:43;19.48;;;14.57;;
61903;SDS011;47857;52.270;6.804;2023-06-24T09:02:09;16.38;;;14.57;;
61903;SDS011;47857;52.270;6.804;2023-06-24T09:04:36;19.60;;;15.55;;
61903;SDS011;47857;52.270;6.804;2023-06-24T09:07:02;20.63;;;15.98;;
61903;SDS011;47857;52.270;6.804;2023-06-24T09:09:28;26.45;;;16.13;;
61903;SDS011;47857;52.270;6.804;2023-06-24T09:11:55;21.17;;;15.63;;
61903;SDS011;47857;52.270;6.804;2023-06-24T09:14:22;25.45;;;16.40;;
61903;SDS011;47857;52.270;6.804;2023-06-24T09:16:53;25.30;;;15.52;;
61903;SDS011;47857;52.270;6.804;2023-06-24T09:19:20;17.55;;;11.38;;
61903;SDS011;47857;52.270;6.804;2023-06-24T09:21:48;22.88;;;16.48;;
61903;SDS011;47857;52.270;6.804;2023-06-24T09:24:13;24.92;;;17.15;;
61903;SDS011;47857;52.270;6.804;2023-06-24T09:26:41;22.02;;;17.15;;
61903;SDS011;47857;52.270;6.804;2023-06-24T09:29:08;19.50;;;15.82;;
61903;SDS011;47857;52.270;6.804;2023-06-24T09:31:33;19.35;;;13.73;;
61903;SDS011;47857;52.270;6.804;2023-06-24T09:33:59;18.13;;;14.57;;
61903;SDS011;47857;52.270;6.804;2023-06-24T09:36:24;16.08;;;12.65;;
61903;SDS011;47857;52.270;6.804;2023-06-24T09:38:50;15.88;;;11.82;;
61903;SDS011;47857;52.270;6.804;2023-06-24T09:41:16;15.38;;;11.73;;
61903;SDS011;47857;52.270;6.804;2023-06-24T09:43:42;12.82;;;9.13;;
61903;SDS011;47857;52.270;6.804;2023-06-24T09:46:11;12.80;;;9.55;;
61903;SDS011;47857;52.270;6.804;2023-06-24T09:48:37;18.02;;;11.40;;
61903;SDS011;47857;52.270;6.804;2023-06-24T09:51:03;12.90;;;9.70;;
61903;SDS011;47857;52.270;6.804;2023-06-24T09:53:33;12.27;;;8.85;;
61903;SDS011;47857;52.270;6.804;2023-06-24T09:56:00;12.05;;;9.77;;
61903;SDS011;47857;52.270;6.804;2023-06-24T09:58:31;13.23;;;9.50;;
61903;SDS011;47857;52.270;6.804;2023-06-24T10:01:00;12.07;;;10.20;;
61903;SDS011;47857;52.270;6.804;2023-06-24T10:03:27;12.95;;;9.68;;
61903;SDS011;47857;52.270;6.804;2023-06-24T10:05:54;12.75;;;8.52;;
61903;SDS011;47857;52.270;6.804;2023-06-24T10:08:20;11.70;;;7.68;;
61903;SDS011;47857;52.270;6.804;2023-06-24T10:10:46;7.93;;;6.15;;
61903;SDS011;47857;52.270;6.804;2023-06-24T10:13:11;8.98;;;6.53;;
61903;SDS011;47857;52.270;6.804;2023-06-24T10:15:37;8.88;;;6.28;;
61903;SDS011;47857;52.270;6.804;2023-06-24T10:18:03;7.53;;;5.40;;
61903;SDS011;47857;52.270;6.804;2023-06-24T10:20:29;5.22;;;4.53;;
61903;SDS011;47857;52.270;6.804;2023-06-24T10:22:54;6.72;;;4.28;;
61903;SDS011;47857;52.270;6.804;2023-06-24T10:25:20;7.82;;;4.88;;
61903;SDS011;47857;52.270;6.804;2023-06-24T10:27:48;5.22;;;4.20;;
61903;SDS011;47857;52.270;6.804;2023-06-24T10:30:19;5.72;;;3.90;;
61903;SDS011;47857;52.270;6.804;2023-06-24T10:32:50;4.45;;;3.40;;
61903;SDS011;47857;52.270;6.804;2023-06-24T10:35:23;5.88;;;4.18;;
61903;SDS011;47857;52.270;6.804;2023-06-24T10:37:54;6.97;;;3.88;;
61903;SDS011;47857;52.270;6.804;2023-06-24T10:40:37;8.52;;;5.05;;
61903;SDS011;47857;52.270;6.804;2023-06-24T10:45:50;5.22;;;4.03;;
61903;SDS011;47857;52.270;6.804;2023-06-24T10:48:17;4.40;;;3.58;;
61903;SDS011;47857;52.270;6.804;2023-06-24T10:50:46;5.30;;;3.70;;
61903;SDS011;47857;52.270;6.804;2023-06-24T10:53:13;6.75;;;3.70;;
61903;SDS011;47857;52.270;6.804;2023-06-24T10:55:39;7.18;;;4.20;;
61903;SDS011;47857;52.270;6.804;2023-06-24T10:58:11;6.05;;;3.50;;
61903;SDS011;47857;52.270;6.804;2023-06-24T11:00:38;15.20;;;4.25;;
61903;SDS011;47857;52.270;6.804;2023-06-24T11:03:08;4.35;;;3.22;;
61903;SDS011;47857;52.270;6.804;2023-06-24T11:05:36;4.97;;;4.07;;
61903;SDS011;47857;52.270;6.804;2023-06-24T11:08:04;9.90;;;4.20;;
61903;SDS011;47857;52.270;6.804;2023-06-24T11:10:30;5.57;;;4.00;;
61903;SDS011;47857;52.270;6.804;2023-06-24T11:12:56;5.18;;;3.53;;
61903;SDS011;47857;52.270;6.804;2023-06-24T11:15:24;9.82;;;3.70;;
61903;SDS011;47857;52.270;6.804;2023-06-24T11:17:50;5.07;;;4.38;;
61903;SDS011;47857;52.270;6.804;2023-06-24T11:20:16;5.60;;;3.67;;
61903;SDS011;47857;52.270;6.804;2023-06-24T11:22:42;4.13;;;3.13;;
61903;SDS011;47857;52.270;6.804;2023-06-24T11:25:18;4.35;;;3.42;;
61903;SDS011;47857;52.270;6.804;2023-06-24T11:27:45;5.88;;;3.28;;
61903;SDS011;47857;52.270;6.804;2023-06-24T11:30:11;5.45;;;3.70;;
61903;SDS011;47857;52.270;6.804;2023-06-24T11:32:41;5.03;;;3.47;;
61903;SDS011;47857;52.270;6.804;2023-06-24T11:35:08;5.18;;;3.33;;
61903;SDS011;47857;52.270;6.804;2023-06-24T11:37:35;4.20;;;3.20;;
61903;SDS011;47857;52.270;6.804;2023-06-24T11:40:05;6.50;;;3.30;;
61903;SDS011;47857;52.270;6.804;2023-06-24T11:42:32;5.07;;;2.97;;
61903;SDS011;47857;52.270;6.804;2023-06-24T11:45:01;4.32;;;3.10;;
61903;SDS011;47857;52.270;6.804;2023-06-24T11:47:30;4.40;;;2.85;;
61903;SDS011;47857;52.270;6.804;2023-06-24T11:49:57;5.50;;;3.25;;
61903;SDS011;47857;52.270;6.804;2023-06-24T11:55:12;5.80;;;3.30;;
61903;SDS011;47857;52.270;6.804;2023-06-24T11:57:54;5.93;;;3.25;;
61903;SDS011;47857;52.270;6.804;2023-06-24T12:00:42;4.50;;;3.50;;
61903;SDS011;47857;52.270;6.804;2023-06-24T12:03:09;6.55;;;3.53;;
61903;SDS011;47857;52.270;6.804;2023-06-24T12:05:35;5.05;;;3.80;;
61903;SDS011;47857;52.270;6.804;2023-06-24T12:08:03;5.22;;;3.63;;
61903;SDS011;47857;52.270;6.804;2023-06-24T12:10:31;5.93;;;4.15;;
61903;SDS011;47857;52.270;6.804;2023-06-24T12:12:58;7.90;;;4.40;;
61903;SDS011;47857;52.270;6.804;2023-06-24T12:15:24;4.20;;;3.60;;
61903;SDS011;47857;52.270;6.804;2023-06-24T12:17:50;5.45;;;3.80;;
61903;SDS011;47857;52.270;6.804;2023-06-24T12:20:16;4.50;;;3.50;;
61903;SDS011;47857;52.270;6.804;2023-06-24T12:22:43;4.68;;;3.80;;
61903;SDS011;47857;52.270;6.804;2023-06-24T12:25:09;6.28;;;4.40;;
61903;SDS011;47857;52.270;6.804;2023-06-24T12:27:34;4.97;;;3.67;;
61903;SDS011;47857;52.270;6.804;2023-06-24T12:30:00;4.75;;;3.50;;
61903;SDS011;47857;52.270;6.804;2023-06-24T12:32:26;5.38;;;4.20;;
61903;SDS011;47857;52.270;6.804;2023-06-24T12:34:52;5.63;;;4.10;;
61903;SDS011;47857;52.270;6.804;2023-06-24T12:37:18;6.28;;;4.20;;
61903;SDS011;47857;52.270;6.804;2023-06-24T12:39:44;6.07;;;4.03;;
61903;SDS011;47857;52.270;6.804;2023-06-24T12:42:10;5.40;;;3.92;;
61903;SDS011;47857;52.270;6.804;2023-06-24T12:44:36;4.70;;;3.40;;
61903;SDS011;47857;52.270;6.804;2023-06-24T12:47:01;4.05;;;3.03;;
61903;SDS011;47857;52.270;6.804;2023-06-24T12:49:28;4.38;;;3.40;;
61903;SDS011;47857;52.270;6.804;2023-06-24T12:51:53;4.43;;;3.70;;
61903;SDS011;47857;52.270;6.804;2023-06-24T12:54:19;4.30;;;3.90;;
61903;SDS011;47857;52.270;6.804;2023-06-24T12:56:44;6.32;;;4.05;;
61903;SDS011;47857;52.270;6.804;2023-06-24T12:59:10;5.57;;;4.40;;
61903;SDS011;47857;52.270;6.804;2023-06-24T13:01:35;4.88;;;3.80;;
61903;SDS011;47857;52.270;6.804;2023-06-24T13:04:01;5.63;;;3.78;;
61903;SDS011;47857;52.270;6.804;2023-06-24T13:06:27;4.35;;;3.38;;
61903;SDS011;47857;52.270;6.804;2023-06-24T13:08:53;4.80;;;3.90;;
61903;SDS011;47857;52.270;6.804;2023-06-24T13:11:19;4.72;;;3.40;;
61903;SDS011;47857;52.270;6.804;2023-06-24T13:13:44;5.47;;;3.83;;
61903;SDS011;47857;52.270;6.804;2023-06-24T13:16:10;4.38;;;3.30;;
61903;SDS011;47857;52.270;6.804;2023-06-24T13:18:35;7.45;;;3.85;;
61903;SDS011;47857;52.270;6.804;2023-06-24T13:21:01;6.43;;;4.03;;
61903;SDS011;47857;52.270;6.804;2023-06-24T13:23:26;7.30;;;4.00;;
61903;SDS011;47857;52.270;6.804;2023-06-24T13:25:52;4.85;;;3.78;;
61903;SDS011;47857;52.270;6.804;2023-06-24T13:28:17;4.80;;;3.58;;
61903;SDS011;47857;52.270;6.804;2023-06-24T13:30:43;4.03;;;3.45;;
61903;SDS011;47857;52.270;6.804;2023-06-24T13:33:08;4.63;;;3.33;;
61903;SDS011;47857;52.270;6.804;2023-06-24T13:35:34;6.03;;;3.40;;
61903;SDS011;47857;52.270;6.804;2023-06-24T13:37:59;4.57;;;3.55;;
61903;SDS011;47857;52.270;6.804;2023-06-24T13:40:26;5.57;;;3.67;;
61903;SDS011;47857;52.270;6.804;2023-06-24T13:42:51;3.90;;;3.45;;
61903;SDS011;47857;52.270;6.804;2023-06-24T13:45:17;5.38;;;3.45;;
61903;SDS011;47857;52.270;6.804;2023-06-24T13:47:42;5.13;;;3.60;;
61903;SDS011;47857;52.270;6.804;2023-06-24T13:50:08;6.25;;;4.40;;
61903;SDS011;47857;52.270;6.804;2023-06-24T13:52:34;4.60;;;3.65;;
61903;SDS011;47857;52.270;6.804;2023-06-24T13:55:00;6.20;;;3.67;;
61903;SDS011;47857;52.270;6.804;2023-06-24T13:57:25;4.32;;;3.47;;
61903;SDS011;47857;52.270;6.804;2023-06-24T13:59:51;5.00;;;3.53;;
61903;SDS011;47857;52.270;6.804;2023-06-24T14:02:16;4.30;;;3.53;;
61903;SDS011;47857;52.270;6.804;2023-06-24T14:04:42;5.20;;;3.50;;
61903;SDS011;47857;52.270;6.804;2023-06-24T14:07:08;5.90;;;3.67;;
61903;SDS011;47857;52.270;6.804;2023-06-24T14:09:34;5.80;;;3.83;;
61903;SDS011;47857;52.270;6.804;2023-06-24T14:11:59;4.05;;;3.42;;
61903;SDS011;47857;52.270;6.804;2023-06-24T14:14:25;4.05;;;3.50;;
61903;SDS011;47857;52.270;6.804;2023-06-24T14:16:50;5.13;;;3.65;;
61903;SDS011;47857;52.270;6.804;2023-06-24T14:19:16;4.63;;;3.38;;
61903;SDS011;47857;52.270;6.804;2023-06-24T14:21:42;4.40;;;3.83;;
61903;SDS011;47857;52.270;6.804;2023-06-24T14:24:07;21.77;;;4.22;;
61903;SDS011;47857;52.270;6.804;2023-06-24T14:26:35;10.07;;;3.30;;
61903;SDS011;47857;52.270;6.804;2023-06-24T14:29:01;4.97;;;3.40;;
61903;SDS011;47857;52.270;6.804;2023-06-24T14:31:26;5.97;;;3.47;;
61903;SDS011;47857;52.270;6.804;2023-06-24T14:33:52;3.67;;;3.30;;
61903;SDS011;47857;52.270;6.804;2023-06-24T14:36:17;7.35;;;3.83;;
61903;SDS011;47857;52.270;6.804;2023-06-24T14:38:43;4.00;;;3.58;;
61903;SDS011;47857;52.270;6.804;2023-06-24T14:41:10;5.65;;;3.72;;
61903;SDS011;47857;52.270;6.804;2023-06-24T14:43:36;4.38;;;3.53;;
61903;SDS011;47857;52.270;6.804;2023-06-24T14:46:01;5.47;;;3.75;;
61903;SDS011;47857;52.270;6.804;2023-06-24T14:48:27;6.78;;;3.70;;